Terminal Aerodrome Forecast
Issued by NWS

Home | Current Version | Previous Version | Text Only | Print | Product List | Glossary On
Versions: 1 2 3 4 5 6 7 8 9 10 11 12 13 14 15
375
FTUS45 KRIW 301127
TAFJAC
TAF
KJAC 301127Z 3012/0112 36006KT P6SM SCT080
     FM301300 VRB04KT P6SM SCT060 BKN080
     FM302300 21010KT P6SM VCSH SCT026 BKN035
     FM011100 21007KT P6SM SCT030 BKN045
      AMD LTD TO CLD VIS AND WIND=

USA.gov is the U.S. government's official web portal to all federal, state and local government web resources and services.